sensor_id;sensor_type;location;lat;lon;timestamp;temperature;humidity
2867;DHT22;1441;48.886;8.728;2022-08-16T00:00:56;18.90;93.10
2867;DHT22;1441;48.886;8.728;2022-08-16T00:03:22;19.00;93.00
2867;DHT22;1441;48.886;8.728;2022-08-16T00:05:47;18.90;93.70
2867;DHT22;1441;48.886;8.728;2022-08-16T00:08:13;18.90;93.90
2867;DHT22;1441;48.886;8.728;2022-08-16T00:10:39;18.80;93.80
2867;DHT22;1441;48.886;8.728;2022-08-16T00:13:07;18.90;93.80
2867;DHT22;1441;48.886;8.728;2022-08-16T00:15:38;18.80;93.80
2867;DHT22;1441;48.886;8.728;2022-08-16T00:18:04;18.80;93.10
2867;DHT22;1441;48.886;8.728;2022-08-16T00:20:31;18.80;93.70
2867;DHT22;1441;48.886;8.728;2022-08-16T00:22:57;19.00;92.80
2867;DHT22;1441;48.886;8.728;2022-08-16T00:25:23;19.00;91.90
2867;DHT22;1441;48.886;8.728;2022-08-16T00:27:49;18.90;93.00
2867;DHT22;1441;48.886;8.728;2022-08-16T00:30:16;19.00;92.70
2867;DHT22;1441;48.886;8.728;2022-08-16T00:32:44;18.90;92.40
2867;DHT22;1441;48.886;8.728;2022-08-16T00:35:15;18.80;92.60
2867;DHT22;1441;48.886;8.728;2022-08-16T00:37:41;18.80;92.90
2867;DHT22;1441;48.886;8.728;2022-08-16T00:40:08;19.00;92.80
2867;DHT22;1441;48.886;8.728;2022-08-16T00:42:33;18.90;92.90
2867;DHT22;1441;48.886;8.728;2022-08-16T00:45:06;18.70;93.40
2867;DHT22;1441;48.886;8.728;2022-08-16T00:47:33;18.70;93.50
2867;DHT22;1441;48.886;8.728;2022-08-16T00:49:59;18.70;93.30
2867;DHT22;1441;48.886;8.728;2022-08-16T00:52:25;18.70;93.50
2867;DHT22;1441;48.886;8.728;2022-08-16T00:54:50;18.90;92.70
2867;DHT22;1441;48.886;8.728;2022-08-16T00:57:16;18.90;92.50
2867;DHT22;1441;48.886;8.728;2022-08-16T00:59:42;18.90;92.40
2867;DHT22;1441;48.886;8.728;2022-08-16T01:02:08;18.80;92.70
2867;DHT22;1441;48.886;8.728;2022-08-16T01:04:35;18.80;92.70
2867;DHT22;1441;48.886;8.728;2022-08-16T01:07:04;18.80;92.50
2867;DHT22;1441;48.886;8.728;2022-08-16T01:09:32;18.80;92.60
2867;DHT22;1441;48.886;8.728;2022-08-16T01:11:58;18.80;92.60
2867;DHT22;1441;48.886;8.728;2022-08-16T01:14:32;18.70;92.60
2867;DHT22;1441;48.886;8.728;2022-08-16T01:16:59;18.80;92.40
2867;DHT22;1441;48.886;8.728;2022-08-16T01:19:32;18.80;92.40
2867;DHT22;1441;48.886;8.728;2022-08-16T01:22:10;18.80;92.40
2867;DHT22;1441;48.886;8.728;2022-08-16T01:24:43;18.80;92.10
2867;DHT22;1441;48.886;8.728;2022-08-16T01:29:40;18.80;92.00
2867;DHT22;1441;48.886;8.728;2022-08-16T01:32:07;18.60;91.90
2867;DHT22;1441;48.886;8.728;2022-08-16T01:34:33;18.50;93.00
2867;DHT22;1441;48.886;8.728;2022-08-16T01:37:05;18.60;92.60
2867;DHT22;1441;48.886;8.728;2022-08-16T01:39:32;18.70;92.40
2867;DHT22;1441;48.886;8.728;2022-08-16T01:41:58;18.60;92.60
2867;DHT22;1441;48.886;8.728;2022-08-16T01:44:24;18.50;92.70
2867;DHT22;1441;48.886;8.728;2022-08-16T01:46:50;18.50;92.70
2867;DHT22;1441;48.886;8.728;2022-08-16T01:49:30;18.50;93.10
2867;DHT22;1441;48.886;8.728;2022-08-16T01:52:05;18.60;92.60
2867;DHT22;1441;48.886;8.728;2022-08-16T01:54:31;18.40;93.40
2867;DHT22;1441;48.886;8.728;2022-08-16T01:56:58;18.30;94.20
2867;DHT22;1441;48.886;8.728;2022-08-16T01:59:24;18.20;94.40
2867;DHT22;1441;48.886;8.728;2022-08-16T02:01:51;18.10;94.80
2867;DHT22;1441;48.886;8.728;2022-08-16T02:04:18;18.00;95.30
2867;DHT22;1441;48.886;8.728;2022-08-16T02:06:44;18.20;94.90
2867;DHT22;1441;48.886;8.728;2022-08-16T02:09:10;18.10;94.60
2867;DHT22;1441;48.886;8.728;2022-08-16T02:11:38;18.10;94.60
2867;DHT22;1441;48.886;8.728;2022-08-16T02:14:05;18.00;94.90
2867;DHT22;1441;48.886;8.728;2022-08-16T02:16:31;17.90;95.30
2867;DHT22;1441;48.886;8.728;2022-08-16T02:18:56;17.80;96.20
2867;DHT22;1441;48.886;8.728;2022-08-16T02:21:23;17.80;96.20
2867;DHT22;1441;48.886;8.728;2022-08-16T02:23:49;17.70;95.90
2867;DHT22;1441;48.886;8.728;2022-08-16T02:26:14;17.70;95.90
2867;DHT22;1441;48.886;8.728;2022-08-16T02:28:41;17.80;96.00
2867;DHT22;1441;48.886;8.728;2022-08-16T02:31:09;17.70;96.40
2867;DHT22;1441;48.886;8.728;2022-08-16T02:33:36;17.70;96.60
2867;DHT22;1441;48.886;8.728;2022-08-16T02:36:03;17.70;96.80
2867;DHT22;1441;48.886;8.728;2022-08-16T02:38:29;17.70;96.70
2867;DHT22;1441;48.886;8.728;2022-08-16T02:40:56;17.70;97.00
2867;DHT22;1441;48.886;8.728;2022-08-16T02:43:24;17.60;96.80
2867;DHT22;1441;48.886;8.728;2022-08-16T02:45:50;17.70;96.20
2867;DHT22;1441;48.886;8.728;2022-08-16T02:48:16;17.80;96.20
2867;DHT22;1441;48.886;8.728;2022-08-16T02:50:41;17.80;96.30
2867;DHT22;1441;48.886;8.728;2022-08-16T02:53:07;17.80;96.60
2867;DHT22;1441;48.886;8.728;2022-08-16T02:55:33;17.80;96.70
2867;DHT22;1441;48.886;8.728;2022-08-16T02:57:58;17.80;96.80
2867;DHT22;1441;48.886;8.728;2022-08-16T03:00:24;17.90;96.80
2867;DHT22;1441;48.886;8.728;2022-08-16T03:02:53;17.80;97.40
2867;DHT22;1441;48.886;8.728;2022-08-16T03:05:19;17.70;97.90
2867;DHT22;1441;48.886;8.728;2022-08-16T03:07:45;17.70;98.00
2867;DHT22;1441;48.886;8.728;2022-08-16T03:10:12;17.80;97.40
2867;DHT22;1441;48.886;8.728;2022-08-16T03:12:38;17.90;96.70
2867;DHT22;1441;48.886;8.728;2022-08-16T03:15:09;18.00;95.70
2867;DHT22;1441;48.886;8.728;2022-08-16T03:17:36;18.10;95.70
2867;DHT22;1441;48.886;8.728;2022-08-16T03:20:06;18.20;95.30
2867;DHT22;1441;48.886;8.728;2022-08-16T03:22:33;18.40;94.60
2867;DHT22;1441;48.886;8.728;2022-08-16T03:25:00;18.40;94.60
2867;DHT22;1441;48.886;8.728;2022-08-16T03:27:28;18.30;95.10
2867;DHT22;1441;48.886;8.728;2022-08-16T03:29:54;18.20;95.00
2867;DHT22;1441;48.886;8.728;2022-08-16T03:32:20;18.20;95.80
2867;DHT22;1441;48.886;8.728;2022-08-16T03:34:45;18.00;96.30
2867;DHT22;1441;48.886;8.728;2022-08-16T03:37:12;18.00;96.50
2867;DHT22;1441;48.886;8.728;2022-08-16T03:39:38;18.00;95.90
2867;DHT22;1441;48.886;8.728;2022-08-16T03:42:04;18.00;96.70
2867;DHT22;1441;48.886;8.728;2022-08-16T03:44:30;17.90;97.10
2867;DHT22;1441;48.886;8.728;2022-08-16T03:46:57;17.90;97.40
2867;DHT22;1441;48.886;8.728;2022-08-16T03:49:22;17.90;97.70
2867;DHT22;1441;48.886;8.728;2022-08-16T03:51:48;17.80;97.60
2867;DHT22;1441;48.886;8.728;2022-08-16T03:54:14;17.80;97.80
2867;DHT22;1441;48.886;8.728;2022-08-16T03:56:40;17.80;97.90
2867;DHT22;1441;48.886;8.728;2022-08-16T03:59:06;17.70;98.00
2867;DHT22;1441;48.886;8.728;2022-08-16T04:01:32;17.70;97.70
2867;DHT22;1441;48.886;8.728;2022-08-16T04:03:58;17.80;97.90
2867;DHT22;1441;48.886;8.728;2022-08-16T04:06:23;17.90;97.10
2867;DHT22;1441;48.886;8.728;2022-08-16T04:08:49;18.00;96.60
2867;DHT22;1441;48.886;8.728;2022-08-16T04:11:15;18.00;96.70
2867;DHT22;1441;48.886;8.728;2022-08-16T04:13:41;17.90;97.20
2867;DHT22;1441;48.886;8.728;2022-08-16T04:16:08;17.80;97.80
2867;DHT22;1441;48.886;8.728;2022-08-16T04:18:33;17.80;97.80
2867;DHT22;1441;48.886;8.728;2022-08-16T04:21:01;17.80;98.20
2867;DHT22;1441;48.886;8.728;2022-08-16T04:23:27;17.80;97.60
2867;DHT22;1441;48.886;8.728;2022-08-16T04:25:52;17.80;97.90
2867;DHT22;1441;48.886;8.728;2022-08-16T04:28:18;17.70;98.30
2867;DHT22;1441;48.886;8.728;2022-08-16T04:30:44;17.70;98.10
2867;DHT22;1441;48.886;8.728;2022-08-16T04:33:09;17.70;98.20
2867;DHT22;1441;48.886;8.728;2022-08-16T04:35:35;17.70;98.40
2867;DHT22;1441;48.886;8.728;2022-08-16T04:38:01;17.70;98.60
2867;DHT22;1441;48.886;8.728;2022-08-16T04:40:27;17.70;98.30
2867;DHT22;1441;48.886;8.728;2022-08-16T04:42:53;17.70;98.10
2867;DHT22;1441;48.886;8.728;2022-08-16T04:45:19;17.80;97.70
2867;DHT22;1441;48.886;8.728;2022-08-16T04:47:45;17.90;97.30
2867;DHT22;1441;48.886;8.728;2022-08-16T04:50:24;18.00;96.40
2867;DHT22;1441;48.886;8.728;2022-08-16T04:52:52;18.00;97.20
2867;DHT22;1441;48.886;8.728;2022-08-16T04:55:21;17.90;97.60
2867;DHT22;1441;48.886;8.728;2022-08-16T04:57:48;17.90;97.60
2867;DHT22;1441;48.886;8.728;2022-08-16T05:00:21;17.90;97.30
2867;DHT22;1441;48.886;8.728;2022-08-16T05:02:54;17.80;97.80
2867;DHT22;1441;48.886;8.728;2022-08-16T05:05:20;17.80;97.70
2867;DHT22;1441;48.886;8.728;2022-08-16T05:07:47;17.90;97.00
2867;DHT22;1441;48.886;8.728;2022-08-16T05:10:14;17.90;96.90
2867;DHT22;1441;48.886;8.728;2022-08-16T05:12:40;18.00;96.90
2867;DHT22;1441;48.886;8.728;2022-08-16T05:15:07;18.00;97.70
2867;DHT22;1441;48.886;8.728;2022-08-16T05:17:33;18.00;97.60
2867;DHT22;1441;48.886;8.728;2022-08-16T05:19:59;18.00;98.10
2867;DHT22;1441;48.886;8.728;2022-08-16T05:22:25;18.00;97.80
2867;DHT22;1441;48.886;8.728;2022-08-16T05:24:51;18.20;97.50
2867;DHT22;1441;48.886;8.728;2022-08-16T05:27:16;18.30;97.10
2867;DHT22;1441;48.886;8.728;2022-08-16T05:29:42;18.40;96.00
2867;DHT22;1441;48.886;8.728;2022-08-16T05:32:08;18.60;96.00
2867;DHT22;1441;48.886;8.728;2022-08-16T05:34:34;18.80;95.00
2867;DHT22;1441;48.886;8.728;2022-08-16T05:37:00;18.90;94.60
2867;DHT22;1441;48.886;8.728;2022-08-16T05:39:26;19.10;93.60
2867;DHT22;1441;48.886;8.728;2022-08-16T05:41:53;19.00;93.30
2867;DHT22;1441;48.886;8.728;2022-08-16T05:44:22;19.00;93.60
2867;DHT22;1441;48.886;8.728;2022-08-16T05:46:55;19.00;94.50
2867;DHT22;1441;48.886;8.728;2022-08-16T05:49:23;19.00;95.00
2867;DHT22;1441;48.886;8.728;2022-08-16T05:51:49;19.10;94.60
2867;DHT22;1441;48.886;8.728;2022-08-16T05:54:15;19.30;94.40
2867;DHT22;1441;48.886;8.728;2022-08-16T05:56:42;19.40;93.80
2867;DHT22;1441;48.886;8.728;2022-08-16T05:59:10;19.50;93.50
2867;DHT22;1441;48.886;8.728;2022-08-16T06:01:36;19.70;93.10
2867;DHT22;1441;48.886;8.728;2022-08-16T06:04:02;19.90;90.70
2867;DHT22;1441;48.886;8.728;2022-08-16T06:06:27;20.00;90.70
2867;DHT22;1441;48.886;8.728;2022-08-16T06:08:53;20.10;91.20
2867;DHT22;1441;48.886;8.728;2022-08-16T06:11:19;20.20;89.30
2867;DHT22;1441;48.886;8.728;2022-08-16T06:13:44;20.50;89.50
2867;DHT22;1441;48.886;8.728;2022-08-16T06:16:12;20.70;88.70
2867;DHT22;1441;48.886;8.728;2022-08-16T06:18:37;21.60;85.50
2867;DHT22;1441;48.886;8.728;2022-08-16T06:21:03;22.60;82.70
2867;DHT22;1441;48.886;8.728;2022-08-16T06:23:29;22.30;83.10
2867;DHT22;1441;48.886;8.728;2022-08-16T06:25:54;21.80;84.60
2867;DHT22;1441;48.886;8.728;2022-08-16T06:28:20;21.40;86.10
2867;DHT22;1441;48.886;8.728;2022-08-16T06:30:46;21.30;86.30
2867;DHT22;1441;48.886;8.728;2022-08-16T06:33:16;21.90;85.60
2867;DHT22;1441;48.886;8.728;2022-08-16T06:35:42;23.90;79.90
2867;DHT22;1441;48.886;8.728;2022-08-16T06:38:08;25.90;73.40
2867;DHT22;1441;48.886;8.728;2022-08-16T06:40:34;26.70;70.30
2867;DHT22;1441;48.886;8.728;2022-08-16T06:43:00;27.10;69.90
2867;DHT22;1441;48.886;8.728;2022-08-16T06:45:26;27.40;68.50
2867;DHT22;1441;48.886;8.728;2022-08-16T06:47:51;28.10;67.10
2867;DHT22;1441;48.886;8.728;2022-08-16T06:50:17;28.90;65.40
2867;DHT22;1441;48.886;8.728;2022-08-16T06:52:44;29.30;63.40
2867;DHT22;1441;48.886;8.728;2022-08-16T06:55:11;29.00;64.10
2867;DHT22;1441;48.886;8.728;2022-08-16T06:57:37;29.70;63.00
2867;DHT22;1441;48.886;8.728;2022-08-16T07:00:05;29.90;62.30
2867;DHT22;1441;48.886;8.728;2022-08-16T07:02:39;30.50;61.00
2867;DHT22;1441;48.886;8.728;2022-08-16T07:05:05;30.70;59.90
2867;DHT22;1441;48.886;8.728;2022-08-16T07:07:32;30.30;60.50
2867;DHT22;1441;48.886;8.728;2022-08-16T07:09:58;30.60;60.60
2867;DHT22;1441;48.886;8.728;2022-08-16T07:12:23;31.10;59.20
2867;DHT22;1441;48.886;8.728;2022-08-16T07:14:49;31.40;58.40
2867;DHT22;1441;48.886;8.728;2022-08-16T07:17:15;31.90;58.10
2867;DHT22;1441;48.886;8.728;2022-08-16T07:19:43;32.40;56.90
2867;DHT22;1441;48.886;8.728;2022-08-16T07:22:09;32.90;54.20
2867;DHT22;1441;48.886;8.728;2022-08-16T07:24:35;32.70;53.50
2867;DHT22;1441;48.886;8.728;2022-08-16T07:27:01;32.90;53.70
2867;DHT22;1441;48.886;8.728;2022-08-16T07:29:28;33.30;52.60
2867;DHT22;1441;48.886;8.728;2022-08-16T07:31:54;33.30;53.30
2867;DHT22;1441;48.886;8.728;2022-08-16T07:34:19;33.70;51.90
2867;DHT22;1441;48.886;8.728;2022-08-16T07:36:45;33.80;51.40
2867;DHT22;1441;48.886;8.728;2022-08-16T07:39:12;33.60;51.50
2867;DHT22;1441;48.886;8.728;2022-08-16T07:41:38;33.10;53.00
2867;DHT22;1441;48.886;8.728;2022-08-16T07:44:04;32.80;53.30
2867;DHT22;1441;48.886;8.728;2022-08-16T07:46:30;32.50;53.80
2867;DHT22;1441;48.886;8.728;2022-08-16T07:48:56;33.00;52.70
2867;DHT22;1441;48.886;8.728;2022-08-16T07:51:21;33.20;51.90
2867;DHT22;1441;48.886;8.728;2022-08-16T07:53:47;33.10;52.90
2867;DHT22;1441;48.886;8.728;2022-08-16T07:56:16;32.20;53.70
2867;DHT22;1441;48.886;8.728;2022-08-16T07:58:43;32.20;54.40
2867;DHT22;1441;48.886;8.728;2022-08-16T08:01:09;31.70;55.70
2867;DHT22;1441;48.886;8.728;2022-08-16T08:03:35;32.80;53.50
2867;DHT22;1441;48.886;8.728;2022-08-16T08:06:00;33.50;51.90
2867;DHT22;1441;48.886;8.728;2022-08-16T08:08:28;34.40;50.70
2867;DHT22;1441;48.886;8.728;2022-08-16T08:10:54;35.30;48.60
2867;DHT22;1441;48.886;8.728;2022-08-16T08:13:20;34.10;50.80
2867;DHT22;1441;48.886;8.728;2022-08-16T08:15:45;33.30;52.30
2867;DHT22;1441;48.886;8.728;2022-08-16T08:18:11;32.20;53.80
2867;DHT22;1441;48.886;8.728;2022-08-16T08:20:38;32.20;53.50
2867;DHT22;1441;48.886;8.728;2022-08-16T08:23:08;31.80;54.40
2867;DHT22;1441;48.886;8.728;2022-08-16T08:25:35;32.50;54.20
2867;DHT22;1441;48.886;8.728;2022-08-16T08:28:01;33.10;52.90
2867;DHT22;1441;48.886;8.728;2022-08-16T08:30:27;34.00;51.30
2867;DHT22;1441;48.886;8.728;2022-08-16T08:32:53;34.70;50.40
2867;DHT22;1441;48.886;8.728;2022-08-16T08:35:19;35.40;49.10
2867;DHT22;1441;48.886;8.728;2022-08-16T08:37:45;35.00;48.80
2867;DHT22;1441;48.886;8.728;2022-08-16T08:40:11;33.10;52.60
2867;DHT22;1441;48.886;8.728;2022-08-16T08:42:37;31.90;54.40
2867;DHT22;1441;48.886;8.728;2022-08-16T08:45:04;31.20;55.50
2867;DHT22;1441;48.886;8.728;2022-08-16T08:47:31;30.00;58.70
2867;DHT22;1441;48.886;8.728;2022-08-16T08:49:57;29.20;60.60
2867;DHT22;1441;48.886;8.728;2022-08-16T08:52:23;28.90;60.60
2867;DHT22;1441;48.886;8.728;2022-08-16T08:54:49;29.80;59.20
2867;DHT22;1441;48.886;8.728;2022-08-16T08:57:14;31.30;56.00
2867;DHT22;1441;48.886;8.728;2022-08-16T08:59:43;31.50;55.80
2867;DHT22;1441;48.886;8.728;2022-08-16T09:02:11;30.00;58.30
2867;DHT22;1441;48.886;8.728;2022-08-16T09:04:38;30.90;56.20
2867;DHT22;1441;48.886;8.728;2022-08-16T09:07:03;32.00;54.30
2867;DHT22;1441;48.886;8.728;2022-08-16T09:09:29;33.30;52.60
2867;DHT22;1441;48.886;8.728;2022-08-16T09:11:56;33.80;51.30
2867;DHT22;1441;48.886;8.728;2022-08-16T09:14:22;33.20;50.60
2867;DHT22;1441;48.886;8.728;2022-08-16T09:16:48;32.60;51.30
2867;DHT22;1441;48.886;8.728;2022-08-16T09:19:15;31.10;54.50
2867;DHT22;1441;48.886;8.728;2022-08-16T09:21:41;29.80;57.30
2867;DHT22;1441;48.886;8.728;2022-08-16T09:24:07;29.50;57.70
2867;DHT22;1441;48.886;8.728;2022-08-16T09:26:32;28.80;58.10
2867;DHT22;1441;48.886;8.728;2022-08-16T09:28:58;28.80;59.30
2867;DHT22;1441;48.886;8.728;2022-08-16T09:31:24;30.50;56.00
2867;DHT22;1441;48.886;8.728;2022-08-16T09:33:50;31.80;54.00
2867;DHT22;1441;48.886;8.728;2022-08-16T09:36:17;32.10;52.60
2867;DHT22;1441;48.886;8.728;2022-08-16T09:38:42;31.70;52.90
2867;DHT22;1441;48.886;8.728;2022-08-16T09:41:10;31.40;53.50
2867;DHT22;1441;48.886;8.728;2022-08-16T09:43:37;31.30;53.90
2867;DHT22;1441;48.886;8.728;2022-08-16T09:46:04;31.90;53.90
2867;DHT22;1441;48.886;8.728;2022-08-16T09:48:33;32.60;54.00
2867;DHT22;1441;48.886;8.728;2022-08-16T09:50:59;32.80;51.20
2867;DHT22;1441;48.886;8.728;2022-08-16T09:53:24;32.40;51.90
2867;DHT22;1441;48.886;8.728;2022-08-16T09:55:53;32.50;52.20
2867;DHT22;1441;48.886;8.728;2022-08-16T09:58:21;32.80;51.60
2867;DHT22;1441;48.886;8.728;2022-08-16T10:00:48;33.60;49.70
2867;DHT22;1441;48.886;8.728;2022-08-16T10:03:15;33.70;50.70
2867;DHT22;1441;48.886;8.728;2022-08-16T10:05:41;33.90;50.20
2867;DHT22;1441;48.886;8.728;2022-08-16T10:08:07;34.10;50.00
2867;DHT22;1441;48.886;8.728;2022-08-16T10:10:34;34.90;48.80
2867;DHT22;1441;48.886;8.728;2022-08-16T10:13:00;33.70;50.00
2867;DHT22;1441;48.886;8.728;2022-08-16T10:15:45;33.20;51.50
2867;DHT22;1441;48.886;8.728;2022-08-16T10:18:12;33.50;49.90
2867;DHT22;1441;48.886;8.728;2022-08-16T10:20:44;33.80;49.50
2867;DHT22;1441;48.886;8.728;2022-08-16T10:23:12;33.00;50.80
2867;DHT22;1441;48.886;8.728;2022-08-16T10:25:41;33.00;50.70
2867;DHT22;1441;48.886;8.728;2022-08-16T10:28:08;32.40;52.10
2867;DHT22;1441;48.886;8.728;2022-08-16T10:30:35;31.80;53.40
2867;DHT22;1441;48.886;8.728;2022-08-16T10:33:02;31.30;54.40
2867;DHT22;1441;48.886;8.728;2022-08-16T10:35:28;31.10;53.80
2867;DHT22;1441;48.886;8.728;2022-08-16T10:37:53;30.90;54.10
2867;DHT22;1441;48.886;8.728;2022-08-16T10:40:20;30.10;56.80
2867;DHT22;1441;48.886;8.728;2022-08-16T10:42:45;29.50;58.40
2867;DHT22;1441;48.886;8.728;2022-08-16T10:45:13;29.30;57.50
2867;DHT22;1441;48.886;8.728;2022-08-16T10:47:39;29.20;58.50
2867;DHT22;1441;48.886;8.728;2022-08-16T10:50:06;29.40;57.90
2867;DHT22;1441;48.886;8.728;2022-08-16T10:52:32;29.60;58.80
2867;DHT22;1441;48.886;8.728;2022-08-16T10:54:58;29.20;59.40
2867;DHT22;1441;48.886;8.728;2022-08-16T10:57:25;28.90;59.20
2867;DHT22;1441;48.886;8.728;2022-08-16T10:59:52;29.00;57.80
2867;DHT22;1441;48.886;8.728;2022-08-16T11:02:18;28.60;59.40
2867;DHT22;1441;48.886;8.728;2022-08-16T11:04:44;28.50;60.10
2867;DHT22;1441;48.886;8.728;2022-08-16T11:07:10;28.50;60.70
2867;DHT22;1441;48.886;8.728;2022-08-16T11:09:36;28.50;60.10
2867;DHT22;1441;48.886;8.728;2022-08-16T11:12:03;28.40;60.00
2867;DHT22;1441;48.886;8.728;2022-08-16T11:14:29;28.50;59.60
2867;DHT22;1441;48.886;8.728;2022-08-16T11:16:54;28.80;60.70
2867;DHT22;1441;48.886;8.728;2022-08-16T11:19:20;29.50;58.70
2867;DHT22;1441;48.886;8.728;2022-08-16T11:21:45;30.10;57.00
2867;DHT22;1441;48.886;8.728;2022-08-16T11:24:11;30.50;56.60
2867;DHT22;1441;48.886;8.728;2022-08-16T11:26:39;30.60;55.60
2867;DHT22;1441;48.886;8.728;2022-08-16T11:29:04;30.80;56.10
2867;DHT22;1441;48.886;8.728;2022-08-16T11:31:32;30.70;55.30
2867;DHT22;1441;48.886;8.728;2022-08-16T11:33:57;30.10;55.40
2867;DHT22;1441;48.886;8.728;2022-08-16T11:36:23;30.00;56.30
2867;DHT22;1441;48.886;8.728;2022-08-16T11:38:48;30.20;56.70
2867;DHT22;1441;48.886;8.728;2022-08-16T11:41:14;30.60;56.10
2867;DHT22;1441;48.886;8.728;2022-08-16T11:43:40;30.70;55.30
2867;DHT22;1441;48.886;8.728;2022-08-16T11:46:11;30.70;55.50
2867;DHT22;1441;48.886;8.728;2022-08-16T11:48:37;30.60;56.60
2867;DHT22;1441;48.886;8.728;2022-08-16T11:51:04;30.30;55.80
2867;DHT22;1441;48.886;8.728;2022-08-16T11:53:31;30.30;56.00
2867;DHT22;1441;48.886;8.728;2022-08-16T11:55:58;30.30;55.10
2867;DHT22;1441;48.886;8.728;2022-08-16T11:58:25;29.80;55.50
2867;DHT22;1441;48.886;8.728;2022-08-16T12:00:54;29.50;56.50
2867;DHT22;1441;48.886;8.728;2022-08-16T12:03:21;29.20;57.00
2867;DHT22;1441;48.886;8.728;2022-08-16T12:05:47;29.10;58.30
2867;DHT22;1441;48.886;8.728;2022-08-16T12:08:13;28.80;59.30
2867;DHT22;1441;48.886;8.728;2022-08-16T12:10:41;28.70;59.50
2867;DHT22;1441;48.886;8.728;2022-08-16T12:13:08;28.80;59.70
2867;DHT22;1441;48.886;8.728;2022-08-16T12:15:35;29.20;57.40
2867;DHT22;1441;48.886;8.728;2022-08-16T12:18:01;29.20;57.30
2867;DHT22;1441;48.886;8.728;2022-08-16T12:20:30;29.20;57.80
2867;DHT22;1441;48.886;8.728;2022-08-16T12:22:57;29.20;58.80
2867;DHT22;1441;48.886;8.728;2022-08-16T12:25:25;29.50;57.30
2867;DHT22;1441;48.886;8.728;2022-08-16T12:27:50;29.80;56.70
2867;DHT22;1441;48.886;8.728;2022-08-16T12:30:20;29.90;56.20
2867;DHT22;1441;48.886;8.728;2022-08-16T12:32:46;29.80;56.80
2867;DHT22;1441;48.886;8.728;2022-08-16T12:35:16;30.00;55.50
2867;DHT22;1441;48.886;8.728;2022-08-16T12:37:43;30.20;55.70
2867;DHT22;1441;48.886;8.728;2022-08-16T12:40:12;30.40;55.30
2867;DHT22;1441;48.886;8.728;2022-08-16T12:42:38;30.10;55.40
2867;DHT22;1441;48.886;8.728;2022-08-16T12:45:07;29.90;56.20
2867;DHT22;1441;48.886;8.728;2022-08-16T12:47:33;29.80;55.80
2867;DHT22;1441;48.886;8.728;2022-08-16T12:50:17;29.60;56.60
2867;DHT22;1441;48.886;8.728;2022-08-16T12:52:43;29.50;55.90
2867;DHT22;1441;48.886;8.728;2022-08-16T12:55:08;29.20;56.40
2867;DHT22;1441;48.886;8.728;2022-08-16T12:57:37;29.10;57.70
2867;DHT22;1441;48.886;8.728;2022-08-16T13:00:06;29.40;56.60
2867;DHT22;1441;48.886;8.728;2022-08-16T13:02:35;29.70;55.90
2867;DHT22;1441;48.886;8.728;2022-08-16T13:05:01;30.00;55.10
2867;DHT22;1441;48.886;8.728;2022-08-16T13:07:26;30.10;56.40
2867;DHT22;1441;48.886;8.728;2022-08-16T13:09:52;29.90;57.10
2867;DHT22;1441;48.886;8.728;2022-08-16T13:12:22;29.80;56.20
2867;DHT22;1441;48.886;8.728;2022-08-16T13:14:52;29.80;55.70
2867;DHT22;1441;48.886;8.728;2022-08-16T13:17:21;29.80;56.00
2867;DHT22;1441;48.886;8.728;2022-08-16T13:19:49;29.80;55.90
2867;DHT22;1441;48.886;8.728;2022-08-16T13:22:15;29.80;56.20
2867;DHT22;1441;48.886;8.728;2022-08-16T13:24:40;29.80;56.00
2867;DHT22;1441;48.886;8.728;2022-08-16T13:27:06;30.00;56.10
2867;DHT22;1441;48.886;8.728;2022-08-16T13:29:32;30.20;55.30
2867;DHT22;1441;48.886;8.728;2022-08-16T13:31:57;30.40;54.60
2867;DHT22;1441;48.886;8.728;2022-08-16T13:34:23;30.40;54.10
2867;DHT22;1441;48.886;8.728;2022-08-16T13:36:49;30.20;53.70
2867;DHT22;1441;48.886;8.728;2022-08-16T13:39:15;30.00;55.40
2867;DHT22;1441;48.886;8.728;2022-08-16T13:41:41;29.80;55.20
2867;DHT22;1441;48.886;8.728;2022-08-16T13:44:07;29.90;54.90
2867;DHT22;1441;48.886;8.728;2022-08-16T13:46:33;29.80;55.20
2867;DHT22;1441;48.886;8.728;2022-08-16T13:48:59;29.80;55.30
2867;DHT22;1441;48.886;8.728;2022-08-16T13:51:26;29.90;56.00
2867;DHT22;1441;48.886;8.728;2022-08-16T13:53:54;30.00;55.00
2867;DHT22;1441;48.886;8.728;2022-08-16T13:56:22;30.00;54.70
2867;DHT22;1441;48.886;8.728;2022-08-16T13:58:50;29.90;54.90
2867;DHT22;1441;48.886;8.728;2022-08-16T14:01:17;29.90;55.60
2867;DHT22;1441;48.886;8.728;2022-08-16T14:03:44;29.80;55.00
2867;DHT22;1441;48.886;8.728;2022-08-16T14:06:11;29.70;55.00
2867;DHT22;1441;48.886;8.728;2022-08-16T14:08:42;29.80;55.40
2867;DHT22;1441;48.886;8.728;2022-08-16T14:11:10;29.80;54.90
2867;DHT22;1441;48.886;8.728;2022-08-16T14:13:35;29.70;55.10
2867;DHT22;1441;48.886;8.728;2022-08-16T14:16:01;29.60;55.00
2867;DHT22;1441;48.886;8.728;2022-08-16T14:18:27;29.40;55.80
2867;DHT22;1441;48.886;8.728;2022-08-16T14:20:53;29.20;55.90
2867;DHT22;1441;48.886;8.728;2022-08-16T14:23:19;29.20;55.80
2867;DHT22;1441;48.886;8.728;2022-08-16T14:25:45;29.30;55.50
2867;DHT22;1441;48.886;8.728;2022-08-16T14:28:11;29.30;56.40
2867;DHT22;1441;48.886;8.728;2022-08-16T14:30:36;29.40;55.40
2867;DHT22;1441;48.886;8.728;2022-08-16T14:33:03;29.60;54.40
2867;DHT22;1441;48.886;8.728;2022-08-16T14:35:31;29.50;54.40
2867;DHT22;1441;48.886;8.728;2022-08-16T14:37:57;29.40;54.80
2867;DHT22;1441;48.886;8.728;2022-08-16T14:40:23;29.40;54.80
2867;DHT22;1441;48.886;8.728;2022-08-16T14:42:49;29.30;55.20
2867;DHT22;1441;48.886;8.728;2022-08-16T14:45:18;29.20;55.10
2867;DHT22;1441;48.886;8.728;2022-08-16T14:47:44;29.00;56.40
2867;DHT22;1441;48.886;8.728;2022-08-16T14:50:13;29.00;55.80
2867;DHT22;1441;48.886;8.728;2022-08-16T14:52:41;29.10;55.30
2867;DHT22;1441;48.886;8.728;2022-08-16T14:55:08;29.10;55.20
2867;DHT22;1441;48.886;8.728;2022-08-16T14:57:34;29.10;55.50
2867;DHT22;1441;48.886;8.728;2022-08-16T14:59:59;29.20;55.70
2867;DHT22;1441;48.886;8.728;2022-08-16T15:02:26;29.40;55.10
2867;DHT22;1441;48.886;8.728;2022-08-16T15:04:53;29.60;54.70
2867;DHT22;1441;48.886;8.728;2022-08-16T15:07:20;29.70;54.50
2867;DHT22;1441;48.886;8.728;2022-08-16T15:09:47;29.80;53.80
2867;DHT22;1441;48.886;8.728;2022-08-16T15:12:15;29.70;53.90
2867;DHT22;1441;48.886;8.728;2022-08-16T15:14:42;29.70;54.10
2867;DHT22;1441;48.886;8.728;2022-08-16T15:17:09;29.80;54.00
2867;DHT22;1441;48.886;8.728;2022-08-16T15:19:35;29.90;53.50
2867;DHT22;1441;48.886;8.728;2022-08-16T15:22:01;30.00;53.20
2867;DHT22;1441;48.886;8.728;2022-08-16T15:24:27;29.90;54.50
2867;DHT22;1441;48.886;8.728;2022-08-16T15:26:55;29.90;53.60
2867;DHT22;1441;48.886;8.728;2022-08-16T15:29:21;29.90;53.80
2867;DHT22;1441;48.886;8.728;2022-08-16T15:31:47;30.00;54.10
2867;DHT22;1441;48.886;8.728;2022-08-16T15:34:12;29.90;55.10
2867;DHT22;1441;48.886;8.728;2022-08-16T15:36:39;29.90;55.30
2867;DHT22;1441;48.886;8.728;2022-08-16T15:39:05;29.80;55.10
2867;DHT22;1441;48.886;8.728;2022-08-16T15:44:10;29.70;54.00
2867;DHT22;1441;48.886;8.728;2022-08-16T15:46:37;29.70;54.60
2867;DHT22;1441;48.886;8.728;2022-08-16T15:49:03;29.50;55.80
2867;DHT22;1441;48.886;8.728;2022-08-16T15:51:28;29.40;55.50
2867;DHT22;1441;48.886;8.728;2022-08-16T15:53:54;29.20;55.60
2867;DHT22;1441;48.886;8.728;2022-08-16T15:56:22;29.20;55.10
2867;DHT22;1441;48.886;8.728;2022-08-16T15:58:47;29.00;56.60
2867;DHT22;1441;48.886;8.728;2022-08-16T16:01:13;28.70;57.20
2867;DHT22;1441;48.886;8.728;2022-08-16T16:03:42;28.50;56.70